sensor_id;sensor_type;location;lat;lon;timestamp;pressure;altitude;pressure_sealevel;temperature;humidity
9462;BME280;4769;42.660;23.262;2023-03-14T00:00:56;94170.72;;;5.10;58.30
9462;BME280;4769;42.660;23.262;2023-03-14T00:03:22;94170.69;;;5.29;58.29
9462;BME280;4769;42.660;23.262;2023-03-14T00:05:48;94184.78;;;5.28;58.08
9462;BME280;4769;42.660;23.262;2023-03-14T00:08:14;94183.94;;;5.28;58.15
9462;BME280;4769;42.660;23.262;2023-03-14T00:10:39;94179.94;;;5.25;58.16
9462;BME280;4769;42.660;23.262;2023-03-14T00:13:08;94177.56;;;5.17;58.59
9462;BME280;4769;42.660;23.262;2023-03-14T00:15:34;94165.09;;;5.19;58.68
9462;BME280;4769;42.660;23.262;2023-03-14T00:18:00;94156.22;;;5.20;58.31
9462;BME280;4769;42.660;23.262;2023-03-14T00:20:26;94153.25;;;5.17;58.78
9462;BME280;4769;42.660;23.262;2023-03-14T00:22:51;94152.25;;;5.05;58.95
9462;BME280;4769;42.660;23.262;2023-03-14T00:25:17;94142.44;;;5.00;59.12
9462;BME280;4769;42.660;23.262;2023-03-14T00:27:43;94139.81;;;5.07;59.54
9462;BME280;4769;42.660;23.262;2023-03-14T00:30:12;94151.00;;;5.20;59.99
9462;BME280;4769;42.660;23.262;2023-03-14T00:32:38;94146.44;;;5.09;59.52
9462;BME280;4769;42.660;23.262;2023-03-14T00:35:04;94141.44;;;4.95;59.86
9462;BME280;4769;42.660;23.262;2023-03-14T00:37:30;94144.25;;;5.00;59.88
9462;BME280;4769;42.660;23.262;2023-03-14T00:39:56;94140.84;;;4.93;59.68
9462;BME280;4769;42.660;23.262;2023-03-14T00:42:21;94143.69;;;4.85;60.32
9462;BME280;4769;42.660;23.262;2023-03-14T00:44:47;94136.47;;;4.80;60.51
9462;BME280;4769;42.660;23.262;2023-03-14T00:47:16;94128.84;;;4.66;60.41
9462;BME280;4769;42.660;23.262;2023-03-14T00:49:41;94135.50;;;4.49;60.94
9462;BME280;4769;42.660;23.262;2023-03-14T00:52:07;94133.94;;;4.15;61.57
9462;BME280;4769;42.660;23.262;2023-03-14T00:54:33;94134.13;;;4.01;62.58
9462;BME280;4769;42.660;23.262;2023-03-14T00:56:58;94134.72;;;4.09;62.51
9462;BME280;4769;42.660;23.262;2023-03-14T00:59:24;94122.28;;;4.05;62.51
9462;BME280;4769;42.660;23.262;2023-03-14T01:01:50;94132.34;;;4.08;62.54
9462;BME280;4769;42.660;23.262;2023-03-14T01:04:19;94126.09;;;3.96;62.91
9462;BME280;4769;42.660;23.262;2023-03-14T01:06:45;94129.91;;;4.00;62.43
9462;BME280;4769;42.660;23.262;2023-03-14T01:09:10;94129.31;;;3.91;62.72
9462;BME280;4769;42.660;23.262;2023-03-14T01:11:36;94120.69;;;4.10;62.13
9462;BME280;4769;42.660;23.262;2023-03-14T01:14:03;94121.66;;;4.03;62.81
9462;BME280;4769;42.660;23.262;2023-03-14T01:16:30;94124.09;;;4.11;63.29
9462;BME280;4769;42.660;23.262;2023-03-14T01:18:56;94098.00;;;4.04;63.76
9462;BME280;4769;42.660;23.262;2023-03-14T01:21:27;94101.19;;;4.26;62.59
9462;BME280;4769;42.660;23.262;2023-03-14T01:23:54;94112.25;;;4.34;62.39
9462;BME280;4769;42.660;23.262;2023-03-14T01:26:23;94099.19;;;4.28;62.07
9462;BME280;4769;42.660;23.262;2023-03-14T01:28:51;94092.38;;;4.07;62.67
9462;BME280;4769;42.660;23.262;2023-03-14T01:31:18;94098.41;;;4.01;62.11
9462;BME280;4769;42.660;23.262;2023-03-14T01:33:45;94088.97;;;3.94;62.58
9462;BME280;4769;42.660;23.262;2023-03-14T01:36:12;94094.75;;;3.57;64.13
9462;BME280;4769;42.660;23.262;2023-03-14T01:38:40;94088.75;;;3.63;64.36
9462;BME280;4769;42.660;23.262;2023-03-14T01:41:07;94086.56;;;3.79;63.17
9462;BME280;4769;42.660;23.262;2023-03-14T01:43:33;94088.16;;;3.93;62.08
9462;BME280;4769;42.660;23.262;2023-03-14T01:46:36;94093.19;;;3.95;62.80
9462;BME280;4769;42.660;23.262;2023-03-14T01:49:10;94097.78;;;4.06;63.62
9462;BME280;4769;42.660;23.262;2023-03-14T01:51:42;94080.75;;;4.03;65.42
9462;BME280;4769;42.660;23.262;2023-03-14T01:54:16;94082.94;;;3.93;66.24
9462;BME280;4769;42.660;23.262;2023-03-14T01:56:46;94084.53;;;3.81;66.43
9462;BME280;4769;42.660;23.262;2023-03-14T01:59:13;94081.75;;;3.83;65.65
9462;BME280;4769;42.660;23.262;2023-03-14T02:01:42;94089.78;;;3.94;64.41
9462;BME280;4769;42.660;23.262;2023-03-14T02:04:09;94073.94;;;4.02;62.25
9462;BME280;4769;42.660;23.262;2023-03-14T02:06:40;94073.94;;;3.96;62.05
9462;BME280;4769;42.660;23.262;2023-03-14T02:09:12;94075.31;;;3.92;62.64
9462;BME280;4769;42.660;23.262;2023-03-14T02:11:38;94066.72;;;3.91;63.26
9462;BME280;4769;42.660;23.262;2023-03-14T02:14:04;94068.50;;;4.04;63.11
9462;BME280;4769;42.660;23.262;2023-03-14T02:16:30;94056.25;;;3.98;64.16
9462;BME280;4769;42.660;23.262;2023-03-14T02:18:56;94051.06;;;3.91;63.88
9462;BME280;4769;42.660;23.262;2023-03-14T02:21:28;94067.69;;;3.97;63.34
9462;BME280;4769;42.660;23.262;2023-03-14T02:24:06;94062.69;;;4.02;63.54
9462;BME280;4769;42.660;23.262;2023-03-14T02:26:39;94061.47;;;4.04;63.21
9462;BME280;4769;42.660;23.262;2023-03-14T02:29:09;94063.50;;;4.09;63.22
9462;BME280;4769;42.660;23.262;2023-03-14T02:31:35;94050.25;;;4.04;63.04
9462;BME280;4769;42.660;23.262;2023-03-14T02:34:01;94063.88;;;4.06;62.97
9462;BME280;4769;42.660;23.262;2023-03-14T02:36:28;94062.69;;;4.02;63.23
9462;BME280;4769;42.660;23.262;2023-03-14T02:39:00;94068.50;;;3.91;63.83
9462;BME280;4769;42.660;23.262;2023-03-14T02:41:29;94076.53;;;3.89;63.26
9462;BME280;4769;42.660;23.262;2023-03-14T02:43:55;94073.13;;;3.76;63.63
9462;BME280;4769;42.660;23.262;2023-03-14T02:46:23;94075.91;;;3.55;64.69
9462;BME280;4769;42.660;23.262;2023-03-14T02:48:52;94078.50;;;3.48;64.26
9462;BME280;4769;42.660;23.262;2023-03-14T02:51:19;94067.41;;;3.20;65.00
9462;BME280;4769;42.660;23.262;2023-03-14T02:53:45;94069.78;;;3.09;66.00
9462;BME280;4769;42.660;23.262;2023-03-14T02:56:11;94070.00;;;3.14;66.10
9462;BME280;4769;42.660;23.262;2023-03-14T02:58:37;94057.19;;;3.12;66.14
9462;BME280;4769;42.660;23.262;2023-03-14T03:01:03;94071.44;;;3.29;66.00
9462;BME280;4769;42.660;23.262;2023-03-14T03:03:32;94068.25;;;3.34;65.49
9462;BME280;4769;42.660;23.262;2023-03-14T03:05:58;94071.66;;;3.41;65.10
9462;BME280;4769;42.660;23.262;2023-03-14T03:08:25;94070.06;;;3.40;65.08
9462;BME280;4769;42.660;23.262;2023-03-14T03:10:51;94068.06;;;3.48;65.70
9462;BME280;4769;42.660;23.262;2023-03-14T03:13:17;94064.06;;;3.59;66.59
9462;BME280;4769;42.660;23.262;2023-03-14T03:15:44;94066.47;;;3.54;68.13
9462;BME280;4769;42.660;23.262;2023-03-14T03:18:10;94061.06;;;3.49;68.30
9462;BME280;4769;42.660;23.262;2023-03-14T03:20:38;94070.88;;;3.47;68.83
9462;BME280;4769;42.660;23.262;2023-03-14T03:23:04;94056.03;;;3.41;68.61
9462;BME280;4769;42.660;23.262;2023-03-14T03:25:30;94070.88;;;3.47;68.68
9462;BME280;4769;42.660;23.262;2023-03-14T03:27:56;94070.66;;;3.48;68.57
9462;BME280;4769;42.660;23.262;2023-03-14T03:30:22;94070.88;;;3.47;68.20
9462;BME280;4769;42.660;23.262;2023-03-14T03:32:47;94070.09;;;3.46;67.87
9462;BME280;4769;42.660;23.262;2023-03-14T03:35:13;94069.69;;;3.56;67.58
9462;BME280;4769;42.660;23.262;2023-03-14T03:37:42;94064.47;;;3.56;68.00
9462;BME280;4769;42.660;23.262;2023-03-14T03:40:09;94067.69;;;3.51;68.07
9462;BME280;4769;42.660;23.262;2023-03-14T03:42:35;94066.88;;;3.57;67.99
9462;BME280;4769;42.660;23.262;2023-03-14T03:45:02;94069.06;;;3.41;68.75
9462;BME280;4769;42.660;23.262;2023-03-14T03:47:29;94062.22;;;3.27;69.55
9462;BME280;4769;42.660;23.262;2023-03-14T03:49:55;94082.47;;;3.25;70.51
9462;BME280;4769;42.660;23.262;2023-03-14T03:52:21;94089.44;;;3.18;70.90
9462;BME280;4769;42.660;23.262;2023-03-14T03:54:49;94088.16;;;2.88;71.61
9462;BME280;4769;42.660;23.262;2023-03-14T03:57:15;94091.41;;;3.03;71.33
9462;BME280;4769;42.660;23.262;2023-03-14T03:59:40;94074.19;;;3.02;71.80
9462;BME280;4769;42.660;23.262;2023-03-14T04:02:06;94085.81;;;3.06;72.20
9462;BME280;4769;42.660;23.262;2023-03-14T04:04:32;94082.25;;;3.20;71.92
9462;BME280;4769;42.660;23.262;2023-03-14T04:06:58;94078.47;;;3.29;71.14
9462;BME280;4769;42.660;23.262;2023-03-14T04:09:23;94076.66;;;3.29;70.40
9462;BME280;4769;42.660;23.262;2023-03-14T04:11:52;94078.44;;;3.22;70.05
9462;BME280;4769;42.660;23.262;2023-03-14T04:14:19;94074.00;;;3.16;70.44
9462;BME280;4769;42.660;23.262;2023-03-14T04:16:45;94081.03;;;3.16;70.15
9462;BME280;4769;42.660;23.262;2023-03-14T04:19:10;94068.03;;;3.22;69.92
9462;BME280;4769;42.660;23.262;2023-03-14T04:21:36;94068.00;;;3.16;69.98
9462;BME280;4769;42.660;23.262;2023-03-14T04:24:02;94053.38;;;3.08;70.78
9462;BME280;4769;42.660;23.262;2023-03-14T04:26:28;94054.38;;;3.14;70.57
9462;BME280;4769;42.660;23.262;2023-03-14T04:28:56;94051.19;;;3.18;70.72
9462;BME280;4769;42.660;23.262;2023-03-14T04:31:22;94034.75;;;3.18;69.91
9462;BME280;4769;42.660;23.262;2023-03-14T04:33:48;94043.38;;;3.18;69.62
9462;BME280;4769;42.660;23.262;2023-03-14T04:36:14;94052.00;;;3.25;69.86
9462;BME280;4769;42.660;23.262;2023-03-14T04:38:42;94035.97;;;3.22;69.80
9462;BME280;4769;42.660;23.262;2023-03-14T04:41:08;94034.75;;;3.24;70.23
9462;BME280;4769;42.660;23.262;2023-03-14T04:46:34;94034.31;;;3.08;71.20
9462;BME280;4769;42.660;23.262;2023-03-14T04:49:00;94032.53;;;3.21;70.65
9462;BME280;4769;42.660;23.262;2023-03-14T04:51:26;94026.75;;;3.26;70.29
9462;BME280;4769;42.660;23.262;2023-03-14T04:53:51;94033.75;;;3.25;70.31
9462;BME280;4769;42.660;23.262;2023-03-14T04:56:17;94032.16;;;3.24;69.96
9462;BME280;4769;42.660;23.262;2023-03-14T04:58:43;94024.75;;;3.28;69.63
9462;BME280;4769;42.660;23.262;2023-03-14T05:01:08;94028.19;;;3.41;68.99
9462;BME280;4769;42.660;23.262;2023-03-14T05:03:37;94025.34;;;3.49;69.27
9462;BME280;4769;42.660;23.262;2023-03-14T05:06:03;94026.78;;;3.52;69.47
9462;BME280;4769;42.660;23.262;2023-03-14T05:08:29;94028.19;;;3.48;68.97
9462;BME280;4769;42.660;23.262;2023-03-14T05:10:55;94021.56;;;3.45;68.30
9462;BME280;4769;42.660;23.262;2023-03-14T05:13:23;94030.38;;;3.57;68.47
9462;BME280;4769;42.660;23.262;2023-03-14T05:15:49;94023.19;;;3.66;68.83
9462;BME280;4769;42.660;23.262;2023-03-14T05:18:14;94022.00;;;3.68;69.17
9462;BME280;4769;42.660;23.262;2023-03-14T05:20:43;94012.72;;;3.72;68.70
9462;BME280;4769;42.660;23.262;2023-03-14T05:23:08;94014.13;;;3.75;69.57
9462;BME280;4769;42.660;23.262;2023-03-14T05:25:34;94017.34;;;3.90;69.18
9462;BME280;4769;42.660;23.262;2023-03-14T05:28:00;94023.97;;;4.05;69.27
9462;BME280;4769;42.660;23.262;2023-03-14T05:30:26;94014.72;;;4.03;69.16
9462;BME280;4769;42.660;23.262;2023-03-14T05:32:51;94010.31;;;4.10;69.27
9462;BME280;4769;42.660;23.262;2023-03-14T05:35:18;94012.06;;;4.29;69.03
9462;BME280;4769;42.660;23.262;2023-03-14T05:37:47;94012.25;;;4.40;68.38
9462;BME280;4769;42.660;23.262;2023-03-14T05:40:13;94020.25;;;4.52;66.88
9462;BME280;4769;42.660;23.262;2023-03-14T05:42:39;94016.78;;;4.58;66.83
9462;BME280;4769;42.660;23.262;2023-03-14T05:45:06;94024.59;;;4.71;65.91
9462;BME280;4769;42.660;23.262;2023-03-14T05:47:32;94027.19;;;4.77;65.50
9462;BME280;4769;42.660;23.262;2023-03-14T05:49:58;94015.72;;;4.78;64.55
9462;BME280;4769;42.660;23.262;2023-03-14T05:52:23;94020.06;;;4.91;64.15
9462;BME280;4769;42.660;23.262;2023-03-14T05:54:52;94017.63;;;4.96;63.96
9462;BME280;4769;42.660;23.262;2023-03-14T05:57:17;94017.19;;;5.05;63.57
9462;BME280;4769;42.660;23.262;2023-03-14T05:59:43;94024.00;;;5.13;63.55
9462;BME280;4769;42.660;23.262;2023-03-14T06:02:09;94025.84;;;5.06;63.18
9462;BME280;4769;42.660;23.262;2023-03-14T06:04:35;94014.66;;;4.92;63.30
9462;BME280;4769;42.660;23.262;2023-03-14T06:07:00;94018.03;;;4.99;63.23
9462;BME280;4769;42.660;23.262;2023-03-14T06:09:26;94014.03;;;4.97;63.51
9462;BME280;4769;42.660;23.262;2023-03-14T06:11:55;94009.00;;;5.02;63.93
9462;BME280;4769;42.660;23.262;2023-03-14T06:14:20;94010.75;;;5.08;63.75
9462;BME280;4769;42.660;23.262;2023-03-14T06:16:46;94016.16;;;5.13;64.13
9462;BME280;4769;42.660;23.262;2023-03-14T06:19:12;94013.88;;;5.23;63.64
9462;BME280;4769;42.660;23.262;2023-03-14T06:21:38;94010.22;;;5.30;62.92
9462;BME280;4769;42.660;23.262;2023-03-14T06:24:04;94015.41;;;5.37;63.11
9462;BME280;4769;42.660;23.262;2023-03-14T06:26:29;94025.38;;;5.53;65.66
9462;BME280;4769;42.660;23.262;2023-03-14T06:28:58;94014.50;;;5.49;63.26
9462;BME280;4769;42.660;23.262;2023-03-14T06:31:23;94024.09;;;5.62;62.64
9462;BME280;4769;42.660;23.262;2023-03-14T06:33:49;94030.00;;;5.51;62.54
9462;BME280;4769;42.660;23.262;2023-03-14T06:36:15;94024.47;;;5.65;62.33
9462;BME280;4769;42.660;23.262;2023-03-14T06:38:40;94014.91;;;5.77;61.37
9462;BME280;4769;42.660;23.262;2023-03-14T06:41:07;94024.19;;;6.04;61.16
9462;BME280;4769;42.660;23.262;2023-03-14T06:43:33;94012.47;;;6.07;60.73
9462;BME280;4769;42.660;23.262;2023-03-14T06:46:01;94007.72;;;6.22;60.16
9462;BME280;4769;42.660;23.262;2023-03-14T06:48:27;94001.91;;;6.38;59.46
9462;BME280;4769;42.660;23.262;2023-03-14T06:50:53;94002.13;;;6.54;58.96
9462;BME280;4769;42.660;23.262;2023-03-14T06:53:18;93992.44;;;6.73;58.32
9462;BME280;4769;42.660;23.262;2023-03-14T06:55:44;94003.53;;;6.75;57.82
9462;BME280;4769;42.660;23.262;2023-03-14T06:58:10;93989.09;;;6.84;56.79
9462;BME280;4769;42.660;23.262;2023-03-14T07:00:35;93990.25;;;6.88;56.32
9462;BME280;4769;42.660;23.262;2023-03-14T07:03:04;93983.25;;;7.00;56.22
9462;BME280;4769;42.660;23.262;2023-03-14T07:05:30;93971.06;;;7.05;55.92
9462;BME280;4769;42.660;23.262;2023-03-14T07:07:56;93978.63;;;7.13;55.86
9462;BME280;4769;42.660;23.262;2023-03-14T07:10:22;93974.00;;;7.27;55.34
9462;BME280;4769;42.660;23.262;2023-03-14T07:12:48;93978.22;;;7.28;55.03
9462;BME280;4769;42.660;23.262;2023-03-14T07:15:13;93981.66;;;7.28;54.55
9462;BME280;4769;42.660;23.262;2023-03-14T07:17:39;93974.22;;;7.25;54.20
9462;BME280;4769;42.660;23.262;2023-03-14T07:20:09;93981.19;;;7.20;52.69
9462;BME280;4769;42.660;23.262;2023-03-14T07:22:35;93986.94;;;7.40;52.69
9462;BME280;4769;42.660;23.262;2023-03-14T07:25:01;93979.00;;;7.58;52.35
9462;BME280;4769;42.660;23.262;2023-03-14T07:27:27;93984.84;;;7.83;51.21
9462;BME280;4769;42.660;23.262;2023-03-14T07:29:52;93974.72;;;8.09;50.61
9462;BME280;4769;42.660;23.262;2023-03-14T07:32:18;93975.75;;;8.54;49.09
9462;BME280;4769;42.660;23.262;2023-03-14T07:34:44;93968.19;;;8.58;48.57
9462;BME280;4769;42.660;23.262;2023-03-14T07:37:12;93963.84;;;8.63;49.00
9462;BME280;4769;42.660;23.262;2023-03-14T07:39:38;93953.44;;;8.68;48.35
9462;BME280;4769;42.660;23.262;2023-03-14T07:42:03;93961.44;;;8.73;48.22
9462;BME280;4769;42.660;23.262;2023-03-14T07:44:29;93961.81;;;8.93;47.36
9462;BME280;4769;42.660;23.262;2023-03-14T07:46:55;93949.13;;;9.02;47.29
9462;BME280;4769;42.660;23.262;2023-03-14T07:49:20;93952.47;;;9.14;47.10
9462;BME280;4769;42.660;23.262;2023-03-14T07:51:47;93957.28;;;8.89;47.74
9462;BME280;4769;42.660;23.262;2023-03-14T07:54:16;93951.63;;;9.08;47.35
9462;BME280;4769;42.660;23.262;2023-03-14T07:56:41;93949.16;;;9.18;47.20
9462;BME280;4769;42.660;23.262;2023-03-14T07:59:07;93957.00;;;9.30;46.22
9462;BME280;4769;42.660;23.262;2023-03-14T08:01:33;93951.06;;;9.51;45.67
9462;BME280;4769;42.660;23.262;2023-03-14T08:03:59;93942.19;;;9.57;44.86
9462;BME280;4769;42.660;23.262;2023-03-14T08:06:25;93932.72;;;9.72;44.63
9462;BME280;4769;42.660;23.262;2023-03-14T08:08:50;93946.25;;;10.09;43.37
9462;BME280;4769;42.660;23.262;2023-03-14T08:11:19;93934.56;;;10.21;43.11
9462;BME280;4769;42.660;23.262;2023-03-14T08:13:44;93932.28;;;10.46;42.44
9462;BME280;4769;42.660;23.262;2023-03-14T08:16:10;93934.91;;;10.89;41.66
9462;BME280;4769;42.660;23.262;2023-03-14T08:18:36;93924.38;;;11.11;40.79
9462;BME280;4769;42.660;23.262;2023-03-14T08:21:01;93922.66;;;11.00;41.16
9462;BME280;4769;42.660;23.262;2023-03-14T08:23:27;93942.84;;;11.11;40.76
9462;BME280;4769;42.660;23.262;2023-03-14T08:25:53;93941.28;;;11.15;40.72
9462;BME280;4769;42.660;23.262;2023-03-14T08:28:21;93942.84;;;11.11;39.52
9462;BME280;4769;42.660;23.262;2023-03-14T08:30:47;93930.84;;;11.25;39.58
9462;BME280;4769;42.660;23.262;2023-03-14T08:33:13;93933.38;;;11.15;39.54
9462;BME280;4769;42.660;23.262;2023-03-14T08:35:38;93927.19;;;11.04;39.77
9462;BME280;4769;42.660;23.262;2023-03-14T08:38:04;93922.88;;;11.20;39.87
9462;BME280;4769;42.660;23.262;2023-03-14T08:40:30;93915.97;;;11.67;39.62
9462;BME280;4769;42.660;23.262;2023-03-14T08:42:55;93914.03;;;11.89;38.62
9462;BME280;4769;42.660;23.262;2023-03-14T08:45:25;93917.72;;;11.88;39.15
9462;BME280;4769;42.660;23.262;2023-03-14T08:47:50;93903.72;;;11.87;38.89
9462;BME280;4769;42.660;23.262;2023-03-14T08:50:16;93911.16;;;11.95;38.50
9462;BME280;4769;42.660;23.262;2023-03-14T08:52:42;93909.88;;;11.98;39.21
9462;BME280;4769;42.660;23.262;2023-03-14T08:55:09;93900.44;;;12.12;38.92
9462;BME280;4769;42.660;23.262;2023-03-14T08:57:35;93900.91;;;12.40;37.87
9462;BME280;4769;42.660;23.262;2023-03-14T09:00:01;93884.00;;;12.98;37.11
9462;BME280;4769;42.660;23.262;2023-03-14T09:02:29;93867.09;;;13.24;36.10
9462;BME280;4769;42.660;23.262;2023-03-14T09:04:56;93868.47;;;13.41;35.86
9462;BME280;4769;42.660;23.262;2023-03-14T09:07:22;93866.34;;;13.43;35.27
9462;BME280;4769;42.660;23.262;2023-03-14T09:09:47;93860.28;;;13.48;35.19
9462;BME280;4769;42.660;23.262;2023-03-14T09:12:13;93850.22;;;13.60;34.68
9462;BME280;4769;42.660;23.262;2023-03-14T09:14:39;93849.16;;;13.76;34.65
9462;BME280;4769;42.660;23.262;2023-03-14T09:17:04;93853.88;;;13.99;34.57
9462;BME280;4769;42.660;23.262;2023-03-14T09:19:33;93835.56;;;14.38;33.99
9462;BME280;4769;42.660;23.262;2023-03-14T09:21:59;93834.47;;;14.49;33.57
9462;BME280;4769;42.660;23.262;2023-03-14T09:24:24;93826.88;;;14.81;33.26
9462;BME280;4769;42.660;23.262;2023-03-14T09:26:50;93828.88;;;15.14;32.46
9462;BME280;4769;42.660;23.262;2023-03-14T09:29:16;93828.72;;;14.90;32.39
9462;BME280;4769;42.660;23.262;2023-03-14T09:31:41;93823.69;;;14.89;31.82
9462;BME280;4769;42.660;23.262;2023-03-14T09:34:07;93821.78;;;14.99;31.81
9462;BME280;4769;42.660;23.262;2023-03-14T09:36:40;93813.59;;;15.39;31.40
9462;BME280;4769;42.660;23.262;2023-03-14T09:39:06;93804.06;;;15.67;30.74
9462;BME280;4769;42.660;23.262;2023-03-14T09:41:33;93803.13;;;15.53;30.95
9462;BME280;4769;42.660;23.262;2023-03-14T09:44:03;93791.63;;;15.57;31.44
9462;BME280;4769;42.660;23.262;2023-03-14T09:46:30;93802.38;;;16.09;30.62
9462;BME280;4769;42.660;23.262;2023-03-14T09:48:58;93786.97;;;16.06;30.32
9462;BME280;4769;42.660;23.262;2023-03-14T09:51:24;93784.19;;;16.16;29.38
9462;BME280;4769;42.660;23.262;2023-03-14T09:53:52;93777.56;;;16.14;29.82
9462;BME280;4769;42.660;23.262;2023-03-14T09:56:20;93775.53;;;16.29;29.38
9462;BME280;4769;42.660;23.262;2023-03-14T09:58:50;93767.94;;;16.46;29.78
9462;BME280;4769;42.660;23.262;2023-03-14T10:01:20;93764.03;;;16.34;28.99
9462;BME280;4769;42.660;23.262;2023-03-14T10:03:47;93765.66;;;16.58;29.12
9462;BME280;4769;42.660;23.262;2023-03-14T10:06:14;93757.38;;;16.78;29.17
9462;BME280;4769;42.660;23.262;2023-03-14T10:08:40;93747.69;;;17.06;28.12
9462;BME280;4769;42.660;23.262;2023-03-14T10:11:13;93742.44;;;17.19;28.01
9462;BME280;4769;42.660;23.262;2023-03-14T10:13:49;93739.56;;;16.97;28.89
9462;BME280;4769;42.660;23.262;2023-03-14T10:16:15;93734.28;;;17.29;28.71
9462;BME280;4769;42.660;23.262;2023-03-14T10:18:44;93721.44;;;17.68;28.14
9462;BME280;4769;42.660;23.262;2023-03-14T10:21:20;93720.19;;;17.93;27.84
9462;BME280;4769;42.660;23.262;2023-03-14T10:23:46;93709.63;;;18.01;27.30
9462;BME280;4769;42.660;23.262;2023-03-14T10:26:16;93714.50;;;17.67;27.56
9462;BME280;4769;42.660;23.262;2023-03-14T10:28:45;93694.38;;;17.88;27.77
9462;BME280;4769;42.660;23.262;2023-03-14T10:31:11;93690.66;;;18.03;27.98
9462;BME280;4769;42.660;23.262;2023-03-14T10:33:37;93679.88;;;17.94;27.89
9462;BME280;4769;42.660;23.262;2023-03-14T10:36:06;93678.41;;;18.15;27.60
9462;BME280;4769;42.660;23.262;2023-03-14T10:38:39;93674.94;;;18.42;27.08
9462;BME280;4769;42.660;23.262;2023-03-14T10:41:17;93664.34;;;18.50;26.78
9462;BME280;4769;42.660;23.262;2023-03-14T10:43:44;93659.31;;;18.08;27.44
9462;BME280;4769;42.660;23.262;2023-03-14T10:46:14;93654.06;;;18.30;27.10
9462;BME280;4769;42.660;23.262;2023-03-14T10:48:41;93650.00;;;18.46;26.91
9462;BME280;4769;42.660;23.262;2023-03-14T10:51:10;93644.53;;;19.00;26.96
9462;BME280;4769;42.660;23.262;2023-03-14T10:53:41;93642.97;;;19.21;26.21
9462;BME280;4769;42.660;23.262;2023-03-14T10:56:10;93628.09;;;19.07;26.04
9462;BME280;4769;42.660;23.262;2023-03-14T10:58:41;93625.50;;;18.80;26.60
9462;BME280;4769;42.660;23.262;2023-03-14T11:01:17;93619.28;;;19.28;26.22
9462;BME280;4769;42.660;23.262;2023-03-14T11:03:51;93622.81;;;19.37;26.01
9462;BME280;4769;42.660;23.262;2023-03-14T11:06:22;93615.94;;;18.79;27.22
9462;BME280;4769;42.660;23.262;2023-03-14T11:08:53;93615.28;;;18.60;27.10
9462;BME280;4769;42.660;23.262;2023-03-14T11:11:23;93608.81;;;18.96;27.10
9462;BME280;4769;42.660;23.262;2023-03-14T11:14:05;93602.09;;;19.43;25.95
9462;BME280;4769;42.660;23.262;2023-03-14T11:16:40;93583.53;;;19.85;25.65
9462;BME280;4769;42.660;23.262;2023-03-14T11:19:22;93580.84;;;19.77;26.04
9462;BME280;4769;42.660;23.262;2023-03-14T11:21:55;93571.34;;;20.01;25.29
9462;BME280;4769;42.660;23.262;2023-03-14T11:24:46;93565.47;;;20.38;25.40
9462;BME280;4769;42.660;23.262;2023-03-14T11:27:18;93549.41;;;20.98;25.03
9462;BME280;4769;42.660;23.262;2023-03-14T11:29:53;93549.84;;;21.00;24.45
9462;BME280;4769;42.660;23.262;2023-03-14T11:32:26;93537.69;;;21.19;24.44
9462;BME280;4769;42.660;23.262;2023-03-14T11:34:54;93538.16;;;21.30;24.41
9462;BME280;4769;42.660;23.262;2023-03-14T11:37:25;93533.84;;;21.37;24.17
9462;BME280;4769;42.660;23.262;2023-03-14T11:39:58;93521.50;;;22.20;23.75
9462;BME280;4769;42.660;23.262;2023-03-14T11:42:26;93526.13;;;22.60;22.79
9462;BME280;4769;42.660;23.262;2023-03-14T11:44:58;93514.91;;;22.38;22.85
9462;BME280;4769;42.660;23.262;2023-03-14T11:47:28;93512.22;;;22.79;22.87
9462;BME280;4769;42.660;23.262;2023-03-14T11:49:58;93504.22;;;23.23;22.42
9462;BME280;4769;42.660;23.262;2023-03-14T11:52:30;93494.75;;;23.38;22.29
9462;BME280;4769;42.660;23.262;2023-03-14T11:55:01;93496.31;;;23.51;22.16
9462;BME280;4769;42.660;23.262;2023-03-14T11:57:28;93493.84;;;22.81;22.54
9462;BME280;4769;42.660;23.262;2023-03-14T12:00:00;93491.41;;;23.08;22.46
9462;BME280;4769;42.660;23.262;2023-03-14T12:02:35;93484.44;;;23.52;21.90
9462;BME280;4769;42.660;23.262;2023-03-14T12:05:25;93482.31;;;23.13;22.08
9462;BME280;4769;42.660;23.262;2023-03-14T12:08:14;93461.69;;;22.31;23.06
9462;BME280;4769;42.660;23.262;2023-03-14T12:10:47;93459.31;;;22.09;23.66
9462;BME280;4769;42.660;23.262;2023-03-14T12:13:15;93463.81;;;22.46;23.08
9462;BME280;4769;42.660;23.262;2023-03-14T12:15:47;93446.94;;;21.67;23.29
9462;BME280;4769;42.660;23.262;2023-03-14T12:18:20;93448.13;;;22.07;23.81
9462;BME280;4769;42.660;23.262;2023-03-14T12:20:51;93435.63;;;23.17;22.83
9462;BME280;4769;42.660;23.262;2023-03-14T12:23:18;93434.09;;;23.88;21.71
9462;BME280;4769;42.660;23.262;2023-03-14T12:25:44;93424.78;;;23.98;21.37
9462;BME280;4769;42.660;23.262;2023-03-14T12:28:20;93424.56;;;23.67;21.64
9462;BME280;4769;42.660;23.262;2023-03-14T12:30:49;93422.53;;;23.28;21.95
9462;BME280;4769;42.660;23.262;2023-03-14T12:33:29;93414.44;;;23.88;21.08
9462;BME280;4769;42.660;23.262;2023-03-14T12:36:15;93415.28;;;23.40;21.70
9462;BME280;4769;42.660;23.262;2023-03-14T12:39:04;93419.41;;;22.81;22.29
9462;BME280;4769;42.660;23.262;2023-03-14T12:41:38;93407.78;;;23.01;22.07
9462;BME280;4769;42.660;23.262;2023-03-14T12:50:14;93376.09;;;24.31;20.76
9462;BME280;4769;42.660;23.262;2023-03-14T12:52:45;93375.84;;;24.08;21.17
9462;BME280;4769;42.660;23.262;2023-03-14T12:55:21;93368.25;;;24.53;20.07
9462;BME280;4769;42.660;23.262;2023-03-14T12:57:55;93360.53;;;23.73;21.00
9462;BME280;4769;42.660;23.262;2023-03-14T13:00:31;93369.66;;;22.22;21.72
9462;BME280;4769;42.660;23.262;2023-03-14T13:03:02;93372.75;;;23.22;21.47
9462;BME280;4769;42.660;23.262;2023-03-14T13:05:51;93353.53;;;23.96;21.27
9462;BME280;4769;42.660;23.262;2023-03-14T13:08:32;93353.56;;;24.78;19.95
9462;BME280;4769;42.660;23.262;2023-03-14T13:10:58;93354.63;;;25.05;19.80
9462;BME280;4769;42.660;23.262;2023-03-14T13:13:26;93350.47;;;25.23;19.44
9462;BME280;4769;42.660;23.262;2023-03-14T13:15:55;93347.28;;;24.74;20.07
9462;BME280;4769;42.660;23.262;2023-03-14T13:18:28;93343.41;;;25.49;19.48
9462;BME280;4769;42.660;23.262;2023-03-14T13:21:01;93324.25;;;25.54;18.68
9462;BME280;4769;42.660;23.262;2023-03-14T13:23:29;93319.53;;;24.74;19.17
9462;BME280;4769;42.660;23.262;2023-03-14T13:25:56;93321.53;;;24.61;19.82
9462;BME280;4769;42.660;23.262;2023-03-14T13:28:22;93316.88;;;25.05;19.38
9462;BME280;4769;42.660;23.262;2023-03-14T13:30:49;93315.63;;;25.49;18.99